sensor_id;sensor_type;location;lat;lon;timestamp;P1;durP1;ratioP1;P2;durP2;ratioP2
63975;SDS011;50167;47.958;21.780;2023-06-01T00:00:48;5.73;;;2.43;;
63975;SDS011;50167;47.958;21.780;2023-06-01T00:03:15;5.70;;;2.67;;
63975;SDS011;50167;47.958;21.780;2023-06-01T00:05:41;7.40;;;2.87;;
63975;SDS011;50167;47.958;21.780;2023-06-01T00:08:07;8.40;;;2.57;;
63975;SDS011;50167;47.958;21.780;2023-06-01T00:10:34;7.53;;;3.00;;
63975;SDS011;50167;47.958;21.780;2023-06-01T00:13:00;9.77;;;2.10;;
63975;SDS011;50167;47.958;21.780;2023-06-01T00:15:26;5.63;;;2.77;;
63975;SDS011;50167;47.958;21.780;2023-06-01T00:17:52;11.37;;;2.97;;
63975;SDS011;50167;47.958;21.780;2023-06-01T00:20:18;5.07;;;2.53;;
63975;SDS011;50167;47.958;21.780;2023-06-01T00:22:44;5.63;;;2.50;;
63975;SDS011;50167;47.958;21.780;2023-06-01T00:25:14;5.30;;;2.30;;
63975;SDS011;50167;47.958;21.780;2023-06-01T00:27:42;4.97;;;2.83;;
63975;SDS011;50167;47.958;21.780;2023-06-01T00:30:08;10.37;;;2.87;;
63975;SDS011;50167;47.958;21.780;2023-06-01T00:32:41;8.33;;;2.27;;
63975;SDS011;50167;47.958;21.780;2023-06-01T00:35:04;11.07;;;2.90;;
63975;SDS011;50167;47.958;21.780;2023-06-01T00:37:31;5.90;;;3.13;;
63975;SDS011;50167;47.958;21.780;2023-06-01T00:39:57;8.23;;;2.83;;
63975;SDS011;50167;47.958;21.780;2023-06-01T00:42:23;6.93;;;3.83;;
63975;SDS011;50167;47.958;21.780;2023-06-01T00:44:49;5.13;;;2.30;;
63975;SDS011;50167;47.958;21.780;2023-06-01T00:47:15;10.20;;;2.63;;
63975;SDS011;50167;47.958;21.780;2023-06-01T00:49:42;6.43;;;2.97;;
63975;SDS011;50167;47.958;21.780;2023-06-01T00:52:08;6.90;;;3.00;;
63975;SDS011;50167;47.958;21.780;2023-06-01T00:54:35;7.30;;;2.93;;
63975;SDS011;50167;47.958;21.780;2023-06-01T00:57:01;6.13;;;3.47;;
63975;SDS011;50167;47.958;21.780;2023-06-01T00:59:28;5.60;;;2.97;;
63975;SDS011;50167;47.958;21.780;2023-06-01T01:01:54;8.67;;;2.93;;
63975;SDS011;50167;47.958;21.780;2023-06-01T01:04:20;5.13;;;2.63;;
63975;SDS011;50167;47.958;21.780;2023-06-01T01:09:32;9.40;;;3.13;;
63975;SDS011;50167;47.958;21.780;2023-06-01T01:12:14;10.43;;;3.10;;
63975;SDS011;50167;47.958;21.780;2023-06-01T01:15:04;11.80;;;2.77;;
63975;SDS011;50167;47.958;21.780;2023-06-01T01:17:50;5.13;;;2.83;;
63975;SDS011;50167;47.958;21.780;2023-06-01T01:20:22;7.45;;;2.95;;
63975;SDS011;50167;47.958;21.780;2023-06-01T01:26:12;7.03;;;2.87;;
63975;SDS011;50167;47.958;21.780;2023-06-01T01:28:47;4.70;;;2.40;;
63975;SDS011;50167;47.958;21.780;2023-06-01T01:31:24;9.38;;;3.00;;
63975;SDS011;50167;47.958;21.780;2023-06-01T01:33:55;11.30;;;3.35;;
63975;SDS011;50167;47.958;21.780;2023-06-01T01:36:23;8.57;;;2.70;;
63975;SDS011;50167;47.958;21.780;2023-06-01T01:38:50;10.67;;;3.07;;
63975;SDS011;50167;47.958;21.780;2023-06-01T01:41:16;12.67;;;2.73;;
63975;SDS011;50167;47.958;21.780;2023-06-01T01:43:42;5.40;;;3.00;;
63975;SDS011;50167;47.958;21.780;2023-06-01T01:49:07;9.80;;;3.60;;
63975;SDS011;50167;47.958;21.780;2023-06-01T01:54:14;16.03;;;4.13;;
63975;SDS011;50167;47.958;21.780;2023-06-01T01:56:42;4.80;;;2.70;;
63975;SDS011;50167;47.958;21.780;2023-06-01T01:59:11;6.10;;;3.30;;
63975;SDS011;50167;47.958;21.780;2023-06-01T02:01:38;8.13;;;3.93;;
63975;SDS011;50167;47.958;21.780;2023-06-01T02:04:10;6.63;;;2.77;;
63975;SDS011;50167;47.958;21.780;2023-06-01T02:06:36;9.87;;;2.77;;
63975;SDS011;50167;47.958;21.780;2023-06-01T02:09:03;6.13;;;2.57;;
63975;SDS011;50167;47.958;21.780;2023-06-01T02:11:33;3.00;;;2.47;;
63975;SDS011;50167;47.958;21.780;2023-06-01T02:14:00;10.13;;;2.30;;
63975;SDS011;50167;47.958;21.780;2023-06-01T02:16:26;6.50;;;2.70;;
63975;SDS011;50167;47.958;21.780;2023-06-01T02:18:53;5.67;;;2.57;;
63975;SDS011;50167;47.958;21.780;2023-06-01T02:21:19;6.10;;;3.40;;
63975;SDS011;50167;47.958;21.780;2023-06-01T02:23:46;7.37;;;3.23;;
63975;SDS011;50167;47.958;21.780;2023-06-01T02:26:12;10.73;;;3.73;;
63975;SDS011;50167;47.958;21.780;2023-06-01T02:28:38;6.70;;;3.27;;
63975;SDS011;50167;47.958;21.780;2023-06-01T02:31:06;4.73;;;2.73;;
63975;SDS011;50167;47.958;21.780;2023-06-01T02:33:34;3.87;;;2.60;;
63975;SDS011;50167;47.958;21.780;2023-06-01T02:36:01;15.33;;;3.37;;
63975;SDS011;50167;47.958;21.780;2023-06-01T02:38:29;7.33;;;2.67;;
63975;SDS011;50167;47.958;21.780;2023-06-01T02:40:55;5.63;;;2.63;;
63975;SDS011;50167;47.958;21.780;2023-06-01T02:43:21;8.37;;;2.53;;
63975;SDS011;50167;47.958;21.780;2023-06-01T02:45:47;7.20;;;4.03;;
63975;SDS011;50167;47.958;21.780;2023-06-01T02:48:14;5.00;;;3.17;;
63975;SDS011;50167;47.958;21.780;2023-06-01T02:50:41;4.33;;;2.50;;
63975;SDS011;50167;47.958;21.780;2023-06-01T02:53:08;11.17;;;3.60;;
63975;SDS011;50167;47.958;21.780;2023-06-01T02:55:34;5.77;;;2.83;;
63975;SDS011;50167;47.958;21.780;2023-06-01T02:58:00;3.87;;;2.37;;
63975;SDS011;50167;47.958;21.780;2023-06-01T03:00:26;6.20;;;2.93;;
63975;SDS011;50167;47.958;21.780;2023-06-01T03:02:53;7.10;;;2.33;;
63975;SDS011;50167;47.958;21.780;2023-06-01T03:05:19;6.47;;;2.83;;
63975;SDS011;50167;47.958;21.780;2023-06-01T03:07:46;7.87;;;2.60;;
63975;SDS011;50167;47.958;21.780;2023-06-01T03:10:13;6.07;;;3.00;;
63975;SDS011;50167;47.958;21.780;2023-06-01T03:12:39;8.73;;;3.00;;
63975;SDS011;50167;47.958;21.780;2023-06-01T03:15:06;7.70;;;3.20;;
63975;SDS011;50167;47.958;21.780;2023-06-01T03:17:37;7.17;;;3.23;;
63975;SDS011;50167;47.958;21.780;2023-06-01T03:20:03;11.50;;;4.43;;
63975;SDS011;50167;47.958;21.780;2023-06-01T03:22:36;6.83;;;2.93;;
63975;SDS011;50167;47.958;21.780;2023-06-01T03:25:09;6.03;;;2.90;;
63975;SDS011;50167;47.958;21.780;2023-06-01T03:27:37;4.97;;;3.40;;
63975;SDS011;50167;47.958;21.780;2023-06-01T03:30:07;5.42;;;3.00;;
63975;SDS011;50167;47.958;21.780;2023-06-01T03:32:36;6.43;;;3.33;;
63975;SDS011;50167;47.958;21.780;2023-06-01T03:37:43;6.97;;;3.27;;
63975;SDS011;50167;47.958;21.780;2023-06-01T03:40:16;7.43;;;3.20;;
63975;SDS011;50167;47.958;21.780;2023-06-01T03:42:40;4.20;;;2.60;;
63975;SDS011;50167;47.958;21.780;2023-06-01T03:45:09;10.90;;;3.00;;
63975;SDS011;50167;47.958;21.780;2023-06-01T03:47:36;7.27;;;3.03;;
63975;SDS011;50167;47.958;21.780;2023-06-01T03:50:03;6.30;;;3.10;;
63975;SDS011;50167;47.958;21.780;2023-06-01T03:52:36;5.70;;;2.50;;
63975;SDS011;50167;47.958;21.780;2023-06-01T03:55:00;5.23;;;2.73;;
63975;SDS011;50167;47.958;21.780;2023-06-01T03:57:34;7.63;;;2.73;;
63975;SDS011;50167;47.958;21.780;2023-06-01T04:00:05;5.57;;;1.97;;
63975;SDS011;50167;47.958;21.780;2023-06-01T04:02:47;4.73;;;3.17;;
63975;SDS011;50167;47.958;21.780;2023-06-01T04:05:22;7.10;;;3.00;;
63975;SDS011;50167;47.958;21.780;2023-06-01T04:07:52;7.57;;;3.33;;
63975;SDS011;50167;47.958;21.780;2023-06-01T04:10:19;7.37;;;3.00;;
63975;SDS011;50167;47.958;21.780;2023-06-01T04:12:47;8.07;;;3.13;;
63975;SDS011;50167;47.958;21.780;2023-06-01T04:15:15;6.40;;;3.43;;
63975;SDS011;50167;47.958;21.780;2023-06-01T04:17:44;7.42;;;3.35;;
63975;SDS011;50167;47.958;21.780;2023-06-01T04:20:13;12.53;;;3.47;;
63975;SDS011;50167;47.958;21.780;2023-06-01T04:22:41;10.80;;;3.93;;
63975;SDS011;50167;47.958;21.780;2023-06-01T04:25:09;4.70;;;2.60;;
63975;SDS011;50167;47.958;21.780;2023-06-01T04:27:37;7.43;;;3.40;;
63975;SDS011;50167;47.958;21.780;2023-06-01T04:30:10;10.60;;;3.20;;
63975;SDS011;50167;47.958;21.780;2023-06-01T04:32:43;5.83;;;2.40;;
63975;SDS011;50167;47.958;21.780;2023-06-01T04:35:13;9.20;;;2.97;;
63975;SDS011;50167;47.958;21.780;2023-06-01T04:37:40;5.73;;;2.70;;
63975;SDS011;50167;47.958;21.780;2023-06-01T04:40:08;7.83;;;2.93;;
63975;SDS011;50167;47.958;21.780;2023-06-01T04:42:40;11.27;;;4.17;;
63975;SDS011;50167;47.958;21.780;2023-06-01T04:45:10;9.33;;;3.37;;
63975;SDS011;50167;47.958;21.780;2023-06-01T04:47:38;7.20;;;3.97;;
63975;SDS011;50167;47.958;21.780;2023-06-01T04:50:11;24.90;;;10.73;;
63975;SDS011;50167;47.958;21.780;2023-06-01T04:52:40;28.57;;;14.33;;
63975;SDS011;50167;47.958;21.780;2023-06-01T04:55:11;35.87;;;15.83;;
63975;SDS011;50167;47.958;21.780;2023-06-01T04:57:41;16.50;;;7.25;;
63975;SDS011;50167;47.958;21.780;2023-06-01T05:00:11;19.70;;;5.70;;
63975;SDS011;50167;47.958;21.780;2023-06-01T05:02:42;12.70;;;4.33;;
63975;SDS011;50167;47.958;21.780;2023-06-01T05:05:09;9.53;;;3.80;;
63975;SDS011;50167;47.958;21.780;2023-06-01T05:07:40;11.90;;;3.52;;
63975;SDS011;50167;47.958;21.780;2023-06-01T05:10:13;10.03;;;3.97;;
63975;SDS011;50167;47.958;21.780;2023-06-01T05:12:40;5.97;;;4.40;;
63975;SDS011;50167;47.958;21.780;2023-06-01T05:15:08;11.00;;;3.83;;
63975;SDS011;50167;47.958;21.780;2023-06-01T05:17:36;8.43;;;3.80;;
63975;SDS011;50167;47.958;21.780;2023-06-01T05:20:22;8.80;;;3.77;;
63975;SDS011;50167;47.958;21.780;2023-06-01T05:22:48;5.73;;;3.97;;
63975;SDS011;50167;47.958;21.780;2023-06-01T05:25:14;7.93;;;3.73;;
63975;SDS011;50167;47.958;21.780;2023-06-01T05:27:40;10.20;;;4.17;;
63975;SDS011;50167;47.958;21.780;2023-06-01T05:30:09;13.23;;;4.33;;
63975;SDS011;50167;47.958;21.780;2023-06-01T05:32:36;8.17;;;4.07;;
63975;SDS011;50167;47.958;21.780;2023-06-01T05:35:05;5.67;;;3.83;;
63975;SDS011;50167;47.958;21.780;2023-06-01T05:43:40;7.63;;;3.73;;
63975;SDS011;50167;47.958;21.780;2023-06-01T05:46:06;8.70;;;3.87;;
63975;SDS011;50167;47.958;21.780;2023-06-01T05:55:56;10.07;;;4.20;;
63975;SDS011;50167;47.958;21.780;2023-06-01T05:58:22;6.93;;;4.43;;
63975;SDS011;50167;47.958;21.780;2023-06-01T06:00:48;8.13;;;4.43;;
63975;SDS011;50167;47.958;21.780;2023-06-01T06:03:16;10.13;;;4.37;;
63975;SDS011;50167;47.958;21.780;2023-06-01T06:05:42;7.77;;;4.17;;
63975;SDS011;50167;47.958;21.780;2023-06-01T06:08:10;11.17;;;4.53;;
63975;SDS011;50167;47.958;21.780;2023-06-01T06:10:38;15.90;;;4.70;;
63975;SDS011;50167;47.958;21.780;2023-06-01T06:13:08;8.53;;;4.50;;
63975;SDS011;50167;47.958;21.780;2023-06-01T06:15:34;14.50;;;4.33;;
63975;SDS011;50167;47.958;21.780;2023-06-01T06:18:02;10.30;;;4.97;;
63975;SDS011;50167;47.958;21.780;2023-06-01T06:20:30;8.47;;;4.63;;
63975;SDS011;50167;47.958;21.780;2023-06-01T06:22:56;12.18;;;5.17;;
63975;SDS011;50167;47.958;21.780;2023-06-01T06:25:22;10.10;;;5.37;;
63975;SDS011;50167;47.958;21.780;2023-06-01T06:27:51;8.35;;;5.60;;
63975;SDS011;50167;47.958;21.780;2023-06-01T06:30:17;11.40;;;4.42;;
63975;SDS011;50167;47.958;21.780;2023-06-01T06:32:45;12.05;;;4.45;;
63975;SDS011;50167;47.958;21.780;2023-06-01T06:35:11;7.40;;;4.45;;
63975;SDS011;50167;47.958;21.780;2023-06-01T06:37:40;11.48;;;4.58;;
63975;SDS011;50167;47.958;21.780;2023-06-01T06:40:07;8.78;;;5.10;;
63975;SDS011;50167;47.958;21.780;2023-06-01T06:42:34;14.30;;;4.70;;
63975;SDS011;50167;47.958;21.780;2023-06-01T06:45:01;7.97;;;5.08;;
63975;SDS011;50167;47.958;21.780;2023-06-01T06:47:27;13.62;;;4.75;;
63975;SDS011;50167;47.958;21.780;2023-06-01T06:49:54;8.28;;;4.55;;
63975;SDS011;50167;47.958;21.780;2023-06-01T06:52:20;10.18;;;5.35;;
63975;SDS011;50167;47.958;21.780;2023-06-01T06:54:46;7.83;;;3.85;;
63975;SDS011;50167;47.958;21.780;2023-06-01T06:57:16;10.78;;;4.65;;
63975;SDS011;50167;47.958;21.780;2023-06-01T06:59:42;9.05;;;4.33;;
63975;SDS011;50167;47.958;21.780;2023-06-01T07:02:08;10.18;;;4.87;;
63975;SDS011;50167;47.958;21.780;2023-06-01T07:04:36;8.70;;;3.85;;
63975;SDS011;50167;47.958;21.780;2023-06-01T07:07:02;10.28;;;4.62;;
63975;SDS011;50167;47.958;21.780;2023-06-01T07:09:31;14.53;;;4.95;;
63975;SDS011;50167;47.958;21.780;2023-06-01T07:11:58;9.43;;;4.50;;
63975;SDS011;50167;47.958;21.780;2023-06-01T07:14:24;8.48;;;4.80;;
63975;SDS011;50167;47.958;21.780;2023-06-01T07:16:52;8.85;;;3.95;;
63975;SDS011;50167;47.958;21.780;2023-06-01T07:19:25;12.45;;;5.47;;
63975;SDS011;50167;47.958;21.780;2023-06-01T07:22:00;12.20;;;4.60;;
63975;SDS011;50167;47.958;21.780;2023-06-01T07:27:03;4.70;;;3.72;;
63975;SDS011;50167;47.958;21.780;2023-06-01T07:29:32;8.13;;;4.78;;
63975;SDS011;50167;47.958;21.780;2023-06-01T07:31:58;7.17;;;4.20;;
63975;SDS011;50167;47.958;21.780;2023-06-01T07:34:29;10.38;;;4.60;;
63975;SDS011;50167;47.958;21.780;2023-06-01T07:36:57;9.90;;;4.17;;
63975;SDS011;50167;47.958;21.780;2023-06-01T07:39:27;8.55;;;4.33;;
63975;SDS011;50167;47.958;21.780;2023-06-01T07:42:14;5.67;;;3.98;;
63975;SDS011;50167;47.958;21.780;2023-06-01T07:44:29;7.25;;;3.67;;
63975;SDS011;50167;47.958;21.780;2023-06-01T07:46:58;8.53;;;4.10;;
63975;SDS011;50167;47.958;21.780;2023-06-01T07:49:29;12.58;;;4.20;;
63975;SDS011;50167;47.958;21.780;2023-06-01T07:54:33;9.83;;;3.83;;
63975;SDS011;50167;47.958;21.780;2023-06-01T07:57:03;13.72;;;4.50;;
63975;SDS011;50167;47.958;21.780;2023-06-01T07:59:32;12.30;;;3.95;;
63975;SDS011;50167;47.958;21.780;2023-06-01T08:01:58;17.20;;;4.85;;
63975;SDS011;50167;47.958;21.780;2023-06-01T08:04:26;7.05;;;3.87;;
63975;SDS011;50167;47.958;21.780;2023-06-01T08:06:55;11.25;;;4.45;;
63975;SDS011;50167;47.958;21.780;2023-06-01T08:09:22;7.58;;;4.10;;
63975;SDS011;50167;47.958;21.780;2023-06-01T08:11:49;8.53;;;3.20;;
63975;SDS011;50167;47.958;21.780;2023-06-01T08:14:16;9.75;;;3.85;;
63975;SDS011;50167;47.958;21.780;2023-06-01T08:16:44;12.20;;;3.75;;
63975;SDS011;50167;47.958;21.780;2023-06-01T08:19:12;6.35;;;3.55;;
63975;SDS011;50167;47.958;21.780;2023-06-01T08:21:39;10.88;;;4.37;;
63975;SDS011;50167;47.958;21.780;2023-06-01T08:24:07;7.80;;;3.55;;
63975;SDS011;50167;47.958;21.780;2023-06-01T08:26:35;7.03;;;3.27;;
63975;SDS011;50167;47.958;21.780;2023-06-01T08:29:01;9.00;;;3.55;;
63975;SDS011;50167;47.958;21.780;2023-06-01T08:31:29;10.05;;;3.27;;
63975;SDS011;50167;47.958;21.780;2023-06-01T08:33:55;9.10;;;4.00;;
63975;SDS011;50167;47.958;21.780;2023-06-01T08:36:21;9.35;;;3.35;;
63975;SDS011;50167;47.958;21.780;2023-06-01T08:38:48;8.95;;;4.17;;
63975;SDS011;50167;47.958;21.780;2023-06-01T08:41:36;7.22;;;3.92;;
63975;SDS011;50167;47.958;21.780;2023-06-01T08:43:58;13.65;;;3.70;;
63975;SDS011;50167;47.958;21.780;2023-06-01T08:48:56;6.70;;;4.08;;
63975;SDS011;50167;47.958;21.780;2023-06-01T08:51:24;23.22;;;4.87;;
63975;SDS011;50167;47.958;21.780;2023-06-01T08:53:52;5.12;;;3.55;;
63975;SDS011;50167;47.958;21.780;2023-06-01T08:56:21;6.15;;;3.27;;
63975;SDS011;50167;47.958;21.780;2023-06-01T08:58:48;7.78;;;3.22;;
63975;SDS011;50167;47.958;21.780;2023-06-01T09:01:18;5.30;;;3.60;;
63975;SDS011;50167;47.958;21.780;2023-06-01T09:03:51;5.83;;;3.33;;
63975;SDS011;50167;47.958;21.780;2023-06-01T09:06:17;9.23;;;4.05;;
63975;SDS011;50167;47.958;21.780;2023-06-01T09:08:44;6.75;;;3.70;;
63975;SDS011;50167;47.958;21.780;2023-06-01T09:11:11;9.55;;;3.12;;
63975;SDS011;50167;47.958;21.780;2023-06-01T09:13:37;9.55;;;3.95;;
63975;SDS011;50167;47.958;21.780;2023-06-01T09:16:05;10.15;;;3.47;;
63975;SDS011;50167;47.958;21.780;2023-06-01T09:18:32;5.47;;;3.20;;
63975;SDS011;50167;47.958;21.780;2023-06-01T09:23:42;4.65;;;2.95;;
63975;SDS011;50167;47.958;21.780;2023-06-01T09:26:10;4.30;;;3.10;;
63975;SDS011;50167;47.958;21.780;2023-06-01T09:31:35;6.72;;;3.17;;
63975;SDS011;50167;47.958;21.780;2023-06-01T09:34:17;6.90;;;2.85;;
63975;SDS011;50167;47.958;21.780;2023-06-01T09:39:22;6.75;;;3.42;;
63975;SDS011;50167;47.958;21.780;2023-06-01T09:41:53;16.32;;;3.90;;
63975;SDS011;50167;47.958;21.780;2023-06-01T09:44:23;5.33;;;2.95;;
63975;SDS011;50167;47.958;21.780;2023-06-01T09:49:39;6.53;;;3.35;;
63975;SDS011;50167;47.958;21.780;2023-06-01T09:52:10;6.67;;;3.08;;
63975;SDS011;50167;47.958;21.780;2023-06-01T09:54:41;9.40;;;3.35;;
63975;SDS011;50167;47.958;21.780;2023-06-01T09:57:12;4.95;;;3.50;;
63975;SDS011;50167;47.958;21.780;2023-06-01T09:59:42;12.20;;;3.40;;
63975;SDS011;50167;47.958;21.780;2023-06-01T10:02:14;5.37;;;2.72;;
63975;SDS011;50167;47.958;21.780;2023-06-01T10:04:53;4.42;;;3.05;;
63975;SDS011;50167;47.958;21.780;2023-06-01T10:07:23;7.00;;;3.47;;
63975;SDS011;50167;47.958;21.780;2023-06-01T10:09:52;10.32;;;2.90;;
63975;SDS011;50167;47.958;21.780;2023-06-01T10:14:48;7.87;;;3.22;;
63975;SDS011;50167;47.958;21.780;2023-06-01T10:17:15;6.58;;;2.65;;
63975;SDS011;50167;47.958;21.780;2023-06-01T10:19:43;5.35;;;3.17;;
63975;SDS011;50167;47.958;21.780;2023-06-01T10:22:10;6.42;;;2.50;;
63975;SDS011;50167;47.958;21.780;2023-06-01T10:24:37;5.62;;;2.42;;
63975;SDS011;50167;47.958;21.780;2023-06-01T10:27:20;7.78;;;2.75;;
63975;SDS011;50167;47.958;21.780;2023-06-01T10:29:54;8.83;;;3.27;;
63975;SDS011;50167;47.958;21.780;2023-06-01T10:40:39;7.90;;;2.62;;
63975;SDS011;50167;47.958;21.780;2023-06-01T10:49:02;3.62;;;2.60;;
63975;SDS011;50167;47.958;21.780;2023-06-01T10:55:30;3.90;;;2.85;;
63975;SDS011;50167;47.958;21.780;2023-06-01T11:00:49;7.12;;;2.72;;
63975;SDS011;50167;47.958;21.780;2023-06-01T11:03:16;10.58;;;2.80;;
63975;SDS011;50167;47.958;21.780;2023-06-01T11:06:06;4.80;;;3.22;;
63975;SDS011;50167;47.958;21.780;2023-06-01T11:08:51;5.12;;;3.12;;
63975;SDS011;50167;47.958;21.780;2023-06-01T11:11:20;7.58;;;2.87;;
63975;SDS011;50167;47.958;21.780;2023-06-01T11:14:07;11.70;;;3.27;;
63975;SDS011;50167;47.958;21.780;2023-06-01T11:16:36;6.17;;;3.40;;
63975;SDS011;50167;47.958;21.780;2023-06-01T11:19:04;5.42;;;2.17;;
63975;SDS011;50167;47.958;21.780;2023-06-01T11:21:35;4.30;;;3.10;;
63975;SDS011;50167;47.958;21.780;2023-06-01T11:24:13;6.92;;;2.55;;
63975;SDS011;50167;47.958;21.780;2023-06-01T11:26:43;11.97;;;3.08;;
63975;SDS011;50167;47.958;21.780;2023-06-01T11:31:47;6.45;;;2.92;;
63975;SDS011;50167;47.958;21.780;2023-06-01T11:34:18;10.48;;;3.35;;
63975;SDS011;50167;47.958;21.780;2023-06-01T11:36:46;5.35;;;2.95;;
63975;SDS011;50167;47.958;21.780;2023-06-01T11:39:17;5.50;;;2.72;;
63975;SDS011;50167;47.958;21.780;2023-06-01T11:41:50;18.42;;;2.70;;
63975;SDS011;50167;47.958;21.780;2023-06-01T11:44:19;7.97;;;2.80;;
63975;SDS011;50167;47.958;21.780;2023-06-01T11:46:51;7.90;;;2.98;;
63975;SDS011;50167;47.958;21.780;2023-06-01T11:49:22;4.90;;;2.55;;
63975;SDS011;50167;47.958;21.780;2023-06-01T11:55:48;7.20;;;2.80;;
63975;SDS011;50167;47.958;21.780;2023-06-01T11:58:25;5.97;;;2.55;;
63975;SDS011;50167;47.958;21.780;2023-06-01T12:00:54;7.58;;;2.12;;
63975;SDS011;50167;47.958;21.780;2023-06-01T12:03:23;4.47;;;3.12;;
63975;SDS011;50167;47.958;21.780;2023-06-01T12:05:59;8.00;;;3.33;;
63975;SDS011;50167;47.958;21.780;2023-06-01T12:08:28;6.10;;;2.30;;
63975;SDS011;50167;47.958;21.780;2023-06-01T12:10:57;7.55;;;2.72;;
63975;SDS011;50167;47.958;21.780;2023-06-01T12:13:26;4.28;;;2.60;;
63975;SDS011;50167;47.958;21.780;2023-06-01T12:15:54;8.70;;;2.77;;
63975;SDS011;50167;47.958;21.780;2023-06-01T12:18:29;3.10;;;1.90;;
63975;SDS011;50167;47.958;21.780;2023-06-01T12:20:56;8.35;;;2.70;;
63975;SDS011;50167;47.958;21.780;2023-06-01T12:23:22;4.20;;;2.22;;
63975;SDS011;50167;47.958;21.780;2023-06-01T12:25:53;8.43;;;2.60;;
63975;SDS011;50167;47.958;21.780;2023-06-01T12:28:24;9.10;;;2.02;;
63975;SDS011;50167;47.958;21.780;2023-06-01T12:31:13;8.78;;;2.47;;
63975;SDS011;50167;47.958;21.780;2023-06-01T12:33:41;3.30;;;2.08;;
63975;SDS011;50167;47.958;21.780;2023-06-01T12:36:35;4.75;;;2.72;;
63975;SDS011;50167;47.958;21.780;2023-06-01T12:39:01;8.50;;;2.45;;
63975;SDS011;50167;47.958;21.780;2023-06-01T12:43:57;4.25;;;2.92;;
63975;SDS011;50167;47.958;21.780;2023-06-01T12:46:27;9.50;;;2.98;;
63975;SDS011;50167;47.958;21.780;2023-06-01T12:49:13;6.35;;;2.65;;
63975;SDS011;50167;47.958;21.780;2023-06-01T12:51:45;8.28;;;2.20;;
63975;SDS011;50167;47.958;21.780;2023-06-01T12:54:12;16.52;;;2.17;;
63975;SDS011;50167;47.958;21.780;2023-06-01T12:56:38;7.80;;;2.27;;
63975;SDS011;50167;47.958;21.780;2023-06-01T12:59:04;8.28;;;2.27;;
63975;SDS011;50167;47.958;21.780;2023-06-01T13:01:32;5.00;;;2.40;;
63975;SDS011;50167;47.958;21.780;2023-06-01T13:03:58;6.55;;;2.08;;
63975;SDS011;50167;47.958;21.780;2023-06-01T13:06:25;6.40;;;2.55;;
63975;SDS011;50167;47.958;21.780;2023-06-01T13:08:52;4.47;;;2.30;;
63975;SDS011;50167;47.958;21.780;2023-06-01T13:11:18;4.78;;;1.82;;
63975;SDS011;50167;47.958;21.780;2023-06-01T13:13:45;8.13;;;2.35;;
63975;SDS011;50167;47.958;21.780;2023-06-01T13:16:11;7.37;;;2.00;;
63975;SDS011;50167;47.958;21.780;2023-06-01T13:18:39;6.37;;;2.98;;
63975;SDS011;50167;47.958;21.780;2023-06-01T13:21:05;9.85;;;2.58;;
63975;SDS011;50167;47.958;21.780;2023-06-01T13:23:32;6.42;;;2.25;;
63975;SDS011;50167;47.958;21.780;2023-06-01T13:25:58;7.50;;;2.47;;
63975;SDS011;50167;47.958;21.780;2023-06-01T13:28:25;5.10;;;2.20;;
63975;SDS011;50167;47.958;21.780;2023-06-01T13:30:52;4.33;;;2.27;;
63975;SDS011;50167;47.958;21.780;2023-06-01T13:33:20;10.82;;;2.40;;
63975;SDS011;50167;47.958;21.780;2023-06-01T13:35:46;8.85;;;2.45;;
63975;SDS011;50167;47.958;21.780;2023-06-01T13:38:13;3.72;;;2.08;;
63975;SDS011;50167;47.958;21.780;2023-06-01T13:40:39;3.12;;;1.72;;
63975;SDS011;50167;47.958;21.780;2023-06-01T13:43:05;9.63;;;2.30;;
63975;SDS011;50167;47.958;21.780;2023-06-01T13:45:32;6.37;;;2.70;;
63975;SDS011;50167;47.958;21.780;2023-06-01T13:47:58;9.13;;;2.10;;
63975;SDS011;50167;47.958;21.780;2023-06-01T13:50:25;4.83;;;2.33;;
63975;SDS011;50167;47.958;21.780;2023-06-01T13:52:51;5.08;;;2.30;;
63975;SDS011;50167;47.958;21.780;2023-06-01T13:55:20;3.27;;;2.12;;
63975;SDS011;50167;47.958;21.780;2023-06-01T13:57:47;3.60;;;2.08;;
63975;SDS011;50167;47.958;21.780;2023-06-01T14:00:14;11.88;;;2.60;;
63975;SDS011;50167;47.958;21.780;2023-06-01T14:02:40;5.20;;;2.27;;
63975;SDS011;50167;47.958;21.780;2023-06-01T14:05:07;28.50;;;3.70;;
63975;SDS011;50167;47.958;21.780;2023-06-01T14:10:01;8.78;;;2.22;;
63975;SDS011;50167;47.958;21.780;2023-06-01T14:12:28;9.55;;;2.87;;
63975;SDS011;50167;47.958;21.780;2023-06-01T14:14:54;8.45;;;2.27;;
63975;SDS011;50167;47.958;21.780;2023-06-01T14:17:20;5.42;;;2.27;;
63975;SDS011;50167;47.958;21.780;2023-06-01T14:19:46;7.65;;;2.50;;
63975;SDS011;50167;47.958;21.780;2023-06-01T14:22:12;7.90;;;2.25;;
63975;SDS011;50167;47.958;21.780;2023-06-01T14:24:41;3.77;;;2.37;;
63975;SDS011;50167;47.958;21.780;2023-06-01T14:27:07;4.58;;;2.02;;
63975;SDS011;50167;47.958;21.780;2023-06-01T14:29:34;6.22;;;2.02;;
63975;SDS011;50167;47.958;21.780;2023-06-01T14:32:00;3.45;;;2.47;;
63975;SDS011;50167;47.958;21.780;2023-06-01T14:34:27;6.33;;;2.50;;
63975;SDS011;50167;47.958;21.780;2023-06-01T14:36:54;3.90;;;2.02;;
63975;SDS011;50167;47.958;21.780;2023-06-01T14:39:20;3.30;;;2.10;;
63975;SDS011;50167;47.958;21.780;2023-06-01T14:41:46;5.60;;;2.50;;
63975;SDS011;50167;47.958;21.780;2023-06-01T14:44:12;6.08;;;1.87;;
63975;SDS011;50167;47.958;21.780;2023-06-01T14:46:38;12.90;;;2.70;;
63975;SDS011;50167;47.958;21.780;2023-06-01T14:49:06;6.53;;;2.67;;
63975;SDS011;50167;47.958;21.780;2023-06-01T14:51:34;5.37;;;2.00;;
63975;SDS011;50167;47.958;21.780;2023-06-01T14:54:00;7.10;;;2.30;;
63975;SDS011;50167;47.958;21.780;2023-06-01T14:56:26;6.08;;;2.60;;
63975;SDS011;50167;47.958;21.780;2023-06-01T14:58:53;4.67;;;1.82;;
63975;SDS011;50167;47.958;21.780;2023-06-01T15:01:20;4.83;;;2.77;;
63975;SDS011;50167;47.958;21.780;2023-06-01T15:03:49;7.83;;;2.20;;
63975;SDS011;50167;47.958;21.780;2023-06-01T15:06:15;11.35;;;2.45;;
63975;SDS011;50167;47.958;21.780;2023-06-01T15:08:41;8.28;;;2.47;;
63975;SDS011;50167;47.958;21.780;2023-06-01T15:11:07;8.00;;;2.62;;
63975;SDS011;50167;47.958;21.780;2023-06-01T15:13:33;7.30;;;2.27;;
63975;SDS011;50167;47.958;21.780;2023-06-01T15:16:00;9.25;;;2.47;;
63975;SDS011;50167;47.958;21.780;2023-06-01T15:18:26;5.72;;;2.37;;
63975;SDS011;50167;47.958;21.780;2023-06-01T15:20:52;6.92;;;2.05;;
63975;SDS011;50167;47.958;21.780;2023-06-01T15:23:18;14.10;;;2.90;;
63975;SDS011;50167;47.958;21.780;2023-06-01T15:25:45;7.08;;;2.55;;
63975;SDS011;50167;47.958;21.780;2023-06-01T15:28:11;10.98;;;2.42;;
63975;SDS011;50167;47.958;21.780;2023-06-01T15:30:38;8.03;;;2.90;;
63975;SDS011;50167;47.958;21.780;2023-06-01T15:33:04;6.00;;;2.75;;
63975;SDS011;50167;47.958;21.780;2023-06-01T15:35:31;7.15;;;2.50;;
63975;SDS011;50167;47.958;21.780;2023-06-01T15:37:57;6.25;;;2.52;;
63975;SDS011;50167;47.958;21.780;2023-06-01T15:40:23;6.60;;;2.72;;
63975;SDS011;50167;47.958;21.780;2023-06-01T15:42:49;13.15;;;2.80;;
63975;SDS011;50167;47.958;21.780;2023-06-01T15:45:15;3.33;;;2.10;;
63975;SDS011;50167;47.958;21.780;2023-06-01T15:47:42;6.28;;;2.27;;
63975;SDS011;50167;47.958;21.780;2023-06-01T15:50:11;9.30;;;2.62;;
63975;SDS011;50167;47.958;21.780;2023-06-01T15:52:39;4.83;;;3.00;;
63975;SDS011;50167;47.958;21.780;2023-06-01T15:55:05;8.98;;;2.92;;
63975;SDS011;50167;47.958;21.780;2023-06-01T15:57:33;10.43;;;2.67;;
63975;SDS011;50167;47.958;21.780;2023-06-01T16:00:00;13.35;;;3.08;;